Latest Coastal Weather Observations for Wynyard

IDV60701

Issued at 11:02 am EDT Saturday 25 March 2017 (issued every 10 minutes, with the page automatically refreshed every 10 minutes)

About coastal observations | Map of coastal stations | Coastal observations for VIC | Marine services | Other Formats
Station Details ID: 091107 Name: WYNYARD AIRPORT Lat: -41.00 Lon: 145.73 Height: 12.0 m
Data from the previous 72 hours. | See also: Recent months at Wynyard
Date/Time
EDT
Temp
°C
Wind Pressure Rain since
9am
mm
Weather Cloud Vis
km
Sea
Height
m
Swell
Dir  Spd
kts
Gust
kts
hPa Trend Height
m
Period
s
Dir
25/11:00am 15.6 ESE 13 19 1013.9 - 0.2 - Cloudy 10 - - - -
25/10:30am 15.8 ESE 10 14 1014.5 - 0.0 - Cloudy 10 - - - -
25/10:00am 15.7 ESE 10 13 1014.4 - 0.0 - Cloudy 10 - - - -
25/09:30am 15.3 ESE 10 13 1014.4 - 0.0 - Cloudy 10 - - - -
25/09:00am 14.9 ESE 9 13 1014.6 - 0.2 - Cloudy 10 - - - -
25/08:30am 14.3 SE 7 12 1014.7 - 0.2 - Cloudy 10 - - - -
25/08:00am 14.0 SE 9 13 1014.5 - 0.2 - Cloudy 10 - - - -
25/07:40am 13.8 ESE 10 13 1014.5 - 0.2 - Cloudy 9 - - - -
25/07:30am 13.7 ESE 10 16 1014.5 - 0.2 - Cloudy 5 - - - -
25/07:28am 13.7 ESE 10 16 1014.6 - 0.2 - Cloudy 5 - - - -
25/07:24am 13.7 ESE 11 16 1014.5 - 0.2 - Cloudy 6 - - - -
25/07:04am 13.8 ESE 11 15 1014.8 - 0.2 - Cloudy 5 - - - -
25/07:00am 13.8 ESE 11 15 1014.8 - 0.2 - Cloudy 6 - - - -
25/06:30am 14.0 ESE 9 12 1014.7 - 0.2 - Cloudy 10 - - - -
25/06:00am 13.9 ESE 10 13 1014.9 - 0.2 - Cloudy 10 - - - -
25/05:30am 13.6 SE 9 14 1015.1 - 0.2 - Cloudy 10 - - - -
25/05:00am 13.4 SE 10 15 1015.2 - 0.2 - Cloudy 8 - - - -
25/04:44am 13.3 SE 11 15 1015.4 - 0.2 - Partly cloudy 8 - - - -
25/04:30am 13.3 SE 9 13 1015.7 - 0.2 - Partly cloudy 5 - - - -
25/04:18am 13.5 SE 9 13 1015.9 - 0.0 - Partly cloudy 5 - - - -
25/04:06am 13.6 SE 9 12 1016.0 - 0.0 - Partly cloudy 6 - - - -
25/04:00am 13.6 SE 9 13 1016.1 - 0.0 - Partly cloudy 6 - - - -
25/03:50am 14.0 SE 11 19 1016.1 - 0.0 - Partly cloudy 5 - - - -
25/03:35am 15.3 E 11 17 1016.3 - 0.0 - Partly cloudy 10 - - - -
25/03:30am 15.2 E 10 15 1016.5 - 0.0 - Partly cloudy 10 - - - -
25/03:21am 15.2 E 10 17 1016.5 - 0.0 - Partly cloudy 10 - - - -
25/03:00am 15.2 E 12 19 1016.0 - 0.0 - Cloudy 10 - - - -
25/02:53am 15.2 E 12 18 1016.2 - 0.0 - Partly cloudy 10 - - - -
25/02:34am 15.2 E 12 19 1016.3 - 0.0 - Partly cloudy 5 - - - -
25/02:30am 15.7 ENE 12 18 1016.8 - 0.0 - Partly cloudy 10 - - - -
25/02:00am 16.6 ENE 12 19 1017.2 - 0.0 - Partly cloudy 10 - - - -
25/01:30am 16.6 ENE 12 17 1017.6 - 0.0 - Partly cloudy 10 - - - -
25/01:00am 16.5 ENE 11 17 1017.6 - 0.0 - - 10 - - - -
25/12:30am 16.6 ENE 12 19 1018.4 - 0.0 - - 10 - - - -
25/12:00am 16.6 ENE 12 18 1018.5 - 0.0 - Cloudy 10 - - - -
 
Date/Time
EDT
Temp
°C
Wind Pressure Rain since
9am
mm
Weather Cloud Vis
km
Sea
Height
m
Swell
Dir  Spd
kts
Gust
kts
hPa Trend Height
m
Period
s
Dir
24/11:30pm 16.7 ENE 13 21 1018.8 - 0.0 - Partly cloudy 10 - - - -
24/11:00pm 16.7 ENE 14 20 1019.1 - 0.0 - - 10 - - - -
24/10:30pm 16.9 ENE 13 20 1019.1 - 0.0 - - 10 - - - -
24/10:00pm 17.0 ENE 14 21 1018.9 - 0.0 - Partly cloudy 10 - - - -
24/09:30pm 17.0 ENE 13 18 1019.1 - 0.0 - Partly cloudy 10 - - - -
24/09:00pm 17.0 ENE 11 16 1019.5 - 0.0 - Cloudy 10 - - - -
24/08:30pm 17.2 NE 13 17 1020.0 - 0.0 - - 10 - - - -
24/08:00pm 17.2 NE 11 16 1019.8 - 0.0 - - 10 - - - -
24/07:30pm 17.3 ENE 12 18 1019.2 - 0.0 - - 10 - - - -
24/07:00pm 17.3 NE 13 18 1019.4 - 0.0 - - 10 - - - -
24/06:30pm 17.4 NE 11 15 1019.9 - 0.0 - - 10 - - - -
24/06:00pm 17.3 ENE 9 13 1020.1 - 0.0 - Cloudy 10 - - - -
24/05:30pm 17.6 NE 10 15 1020.2 - 0.0 - Partly cloudy 10 - - - -
24/05:00pm 17.6 ENE 12 16 1019.9 - 0.0 - - 10 - - - -
24/04:30pm 17.8 ENE 12 17 1020.1 - 0.0 - Partly cloudy 10 - - - -
24/04:00pm 17.8 ENE 9 14 1020.3 - 0.0 - - 10 - - - -
24/03:30pm 17.6 ENE 11 15 1020.7 - 0.0 - Partly cloudy 10 - - - -
24/03:00pm 18.1 ENE 11 15 1020.9 - 0.0 - Mostly cloudy 10 - - - -
24/02:30pm 18.0 ENE 10 15 1021.9 - 0.0 - - 10 - - - -
24/02:00pm 18.6 ENE 11 14 1022.5 - 0.0 - Partly cloudy 10 - - - -
24/01:30pm 17.8 E 9 13 1022.3 - 0.0 - - 10 - - - -
24/01:00pm 17.7 E 11 15 1022.8 - 0.0 - - 10 - - - -
24/12:30pm 17.9 ENE 10 13 1023.4 - 0.0 - - 10 - - - -
24/12:00pm 17.6 E 9 14 1023.6 - 0.0 - - 10 - - - -
24/11:30am 17.2 E 9 12 1023.9 - 0.0 - - 10 - - - -
24/11:00am 17.9 E 9 14 1024.0 - 0.0 - - 10 - - - -
24/10:30am 17.7 E 9 13 1024.2 - 0.0 - - 10 - - - -
24/10:00am 17.5 E 8 11 1024.3 - 0.0 - Partly cloudy 10 - - - -
24/09:30am 16.4 SE 2 6 1024.1 - 0.0 - Cloudy 10 - - - -
24/09:00am 15.1 SE 6 7 1023.7 - 3.8 - Mostly cloudy 10 - - - -
24/08:30am 14.7 SSE 5 7 1023.7 - 3.8 - Partly cloudy 10 - - - -
24/08:00am 14.3 SSE 7 9 1023.3 - 3.8 - Partly cloudy 10 - - - -
24/07:30am 14.1 SE 6 9 1023.1 - 3.8 - Partly cloudy 10 - - - -
24/07:00am 13.9 SE 6 8 1022.8 - 3.8 - Partly cloudy 10 - - - -
24/06:30am 14.6 SE 7 9 1023.1 - 3.8 - Partly cloudy 10 - - - -
24/06:00am 15.0 ESE 9 13 1022.7 - 3.8 - Cloudy 10 - - - -
24/05:30am 15.3 E 11 16 1022.5 - 3.8 - Partly cloudy 10 - - - -
24/05:00am 16.0 ENE 8 12 1022.5 - 3.8 - Partly cloudy 10 - - - -
24/04:30am 15.9 NE 9 15 1022.7 - 3.8 - Partly cloudy 10 - - - -
24/04:02am 14.4 WSW 4 6 1023.1 - 3.8 - Partly cloudy 10 - - - -
24/04:00am 14.4 WSW 4 5 1023.2 - 3.8 - Partly cloudy 10 - - - -
24/03:55am 14.3 SW 5 6 1023.3 - 3.8 - Partly cloudy 10 - - - -
24/03:51am 14.3 SSW 5 6 1023.4 - 3.4 - Partly cloudy 10 - - - -
24/03:30am 14.2 SSW 1 3 1023.5 - 2.0 - Partly cloudy 4 - - - -
24/03:00am 14.2 SW 5 6 1023.9 - 1.0 Rain Cloudy 5 - - - -
24/02:34am 14.2 SW 4 5 1023.9 - 0.6 - Partly cloudy 4 - - - -
24/02:30am 14.1 SW 4 6 1023.9 - 0.4 - Partly cloudy 4 - - - -
24/02:26am 14.2 SW 4 6 1023.9 - 0.4 - Partly cloudy 5 - - - -
24/02:13am 13.9 W 6 7 1023.8 - 0.4 - Partly cloudy 8 - - - -
24/02:00am 14.1 WNW 4 6 1023.8 - 0.4 - Partly cloudy 4 - - - -
24/01:55am 14.3 NW 4 5 1023.7 - 0.2 - Partly cloudy 5 - - - -
24/01:30am 13.6 W 3 4 1023.4 - 0.0 - Partly cloudy 10 - - - -
24/01:00am 14.2 WNW 3 4 1023.5 - 0.0 - Cloudy 10 - - - -
24/12:30am 14.6 WNW 6 8 1024.1 - 0.0 - Cloudy 10 - - - -
24/12:00am 14.4 W 5 6 1023.9 - 0.0 - Cloudy 10 - - - -
 
Date/Time
EDT
Temp
°C
Wind Pressure Rain since
9am
mm
Weather Cloud Vis
km
Sea
Height
m
Swell
Dir  Spd
kts
Gust
kts
hPa Trend Height
m
Period
s
Dir
23/11:30pm 14.3 SW 3 4 1024.3 - 0.0 - Cloudy 10 - - - -
23/11:00pm 14.6 SW 3 4 1024.7 - 0.0 - Cloudy 10 - - - -
23/10:30pm 14.8 W 1 4 1024.9 - 0.0 - Cloudy 10 - - - -
23/10:00pm 14.5 WSW 5 7 1025.1 - 0.0 - Partly cloudy 10 - - - -
23/09:30pm 15.1 W 3 4 1024.4 - 0.0 - Cloudy 10 - - - -
23/09:00pm 15.4 SSW 3 3 1024.2 - 0.0 - Cloudy 10 - - - -
23/08:30pm 15.9 SSW 3 4 1023.9 - 0.0 - Cloudy 10 - - - -
23/08:00pm 16.2 SW 5 5 1023.8 - 0.0 - Cloudy 10 - - - -
23/07:30pm 16.4 W 4 5 1023.5 - 0.0 - Partly cloudy 10 - - - -
23/07:00pm 16.9 NW 5 7 1023.4 - 0.0 - - 10 - - - -
23/06:30pm 17.9 NNE 5 7 1023.3 - 0.0 - - 10 - - - -
23/06:00pm 18.3 N 5 9 1023.2 - 0.0 - - 10 - - - -
23/05:30pm 18.4 N 6 9 1023.3 - 0.0 - - 10 - - - -
23/05:00pm 18.7 NNE 6 8 1023.5 - 0.0 - Partly cloudy 10 - - - -
23/04:30pm 18.4 NNE 7 9 1023.7 - 0.0 - - 10 - - - -
23/04:00pm 19.4 NE 8 11 1023.5 - 0.0 - - 10 - - - -
23/03:30pm 19.5 NE 9 11 1023.7 - 0.0 - - 10 - - - -
23/03:00pm 19.0 NE 10 13 1023.8 - 0.0 - - 10 - - - -
23/02:30pm 19.4 NE 10 14 1023.8 - 0.0 - - 10 - - - -
23/02:00pm 19.1 ENE 9 12 1024.1 - 0.0 - - 10 - - - -
23/01:30pm 19.0 ENE 9 12 1024.4 - 0.0 - Partly cloudy 10 - - - -
23/01:00pm 18.6 ENE 9 13 1024.7 - 0.0 - Cloudy 10 - - - -
23/12:30pm 18.6 ENE 10 14 1024.8 - 0.0 - Cloudy 10 - - - -
23/12:00pm 18.6 E 10 13 1025.0 - 0.0 - Mostly clear 10 - - - -
23/11:30am 18.8 E 9 15 1025.1 - 0.0 - Partly cloudy 10 - - - -
23/11:00am 18.0 E 9 12 1025.4 - 0.0 - Partly cloudy 10 - - - -
23/10:30am 17.4 ESE 8 11 1025.2 - 0.0 - Cloudy 10 - - - -
23/10:00am 16.9 SE 8 16 1025.4 - 0.0 - Cloudy 10 - - - -
23/09:30am 16.0 ESE 5 7 1025.5 - 0.0 - Cloudy 10 - - - -
23/09:00am 15.0 SSE 4 5 1025.2 - 0.2 - Mostly cloudy 10 - - - -
23/08:30am 13.5 SE 5 6 1024.9 - 0.2 - Partly cloudy 10 - - - -
23/08:00am 13.5 SE 5 7 1024.9 - 0.2 - Partly cloudy 10 - - - -
23/07:30am 14.0 SE 6 9 1024.6 - 0.2 - Partly cloudy 10 - - - -
23/07:00am 14.5 SE 7 10 1024.4 - 0.2 - Cloudy 10 - - - -
23/06:30am 14.6 SE 8 13 1024.3 - 0.2 - Cloudy 10 - - - -
23/06:00am 14.8 SE 9 11 1024.2 - 0.2 - Cloudy 10 - - - -
23/05:30am 14.9 SE 9 13 1023.9 - 0.2 - Cloudy 10 - - - -
23/05:00am 15.1 ESE 8 12 1023.8 - 0.2 - Cloudy 10 - - - -
23/04:30am 15.1 ESE 8 12 1023.8 - 0.2 - Cloudy 10 - - - -
23/04:00am 15.2 ESE 8 11 1023.8 - 0.2 - Cloudy 10 - - - -
23/03:30am 15.3 ESE 7 12 1023.9 - 0.2 - Cloudy 10 - - - -
23/03:00am 15.2 ESE 8 12 1023.9 - 0.2 - Mostly cloudy 10 - - - -
23/02:30am 15.2 ESE 7 11 1024.0 - 0.2 - Cloudy 10 - - - -
23/02:00am 15.5 E 10 13 1024.0 - 0.2 - Cloudy 10 - - - -
23/01:30am 15.5 E 7 11 1023.9 - 0.2 - Cloudy 10 - - - -
23/01:00am 15.6 ESE 9 12 1024.1 - 0.2 - Partly cloudy 10 - - - -
23/12:30am 15.7 E 8 12 1024.0 - 0.2 - Cloudy 10 - - - -
23/12:00am 16.0 E 10 13 1024.0 - 0.2 - Mostly cloudy 10 - - - -
 
Date/Time
EDT
Temp
°C
Wind Pressure Rain since
9am
mm
Weather Cloud Vis
km
Sea
Height
m
Swell
Dir  Spd
kts
Gust
kts
hPa Trend Height
m
Period
s
Dir
22/11:30pm 16.2 E 8 13 1023.9 - 0.2 - Cloudy 10 - - - -
22/11:00pm 16.2 E 9 15 1023.6 - 0.2 - Cloudy 10 - - - -
22/10:30pm 16.5 ESE 11 15 1023.3 - 0.2 - Partly cloudy 10 - - - -
22/10:00pm 16.6 E 10 14 1023.1 - 0.2 - Partly cloudy 10 - - - -
22/09:30pm 16.7 E 9 14 1022.8 - 0.2 - Partly cloudy 10 - - - -
22/09:00pm 17.0 ENE 8 11 1022.6 - 0.0 - Cloudy 10 - - - -
22/08:30pm 18.0 NE 10 12 1022.1 - 0.0 - Partly cloudy 10 - - - -
22/08:00pm 18.6 NE 8 11 1021.7 - 0.0 - Partly cloudy 10 - - - -
22/07:30pm 18.6 NE 7 10 1021.3 - 0.0 - Partly cloudy 10 - - - -
22/07:00pm 18.7 NE 5 11 1021.0 - 0.0 - Partly cloudy 10 - - - -
22/06:30pm 18.8 N 4 6 1020.7 - 0.0 - Partly cloudy 10 - - - -
22/06:00pm 19.0 NNE 6 7 1020.4 - 0.0 - Cloudy 10 - - - -
22/05:30pm 19.5 NNE 6 8 1020.0 - 0.0 - Partly cloudy 10 - - - -
22/05:00pm 19.8 N 5 8 1020.0 - 0.0 - Partly cloudy 10 - - - -
22/04:30pm 19.9 NNE 6 8 1019.8 - 0.0 - Partly cloudy 10 - - - -
22/04:00pm 20.9 NNE 7 10 1019.6 - 0.0 - Partly cloudy 10 - - - -
22/03:30pm 20.4 NE 9 12 1019.7 - 0.0 - Partly cloudy 10 - - - -
22/03:00pm 20.0 NE 11 13 1019.5 - 0.0 - Cloudy 10 - - - -
22/02:30pm 20.0 NE 9 13 1019.6 - 0.0 - Partly cloudy 10 - - - -
22/02:00pm 20.6 NE 11 15 1019.7 - 0.0 - Partly cloudy 10 - - - -
22/01:30pm 19.9 ENE 10 14 1019.8 - 0.0 - Cloudy 10 - - - -
22/01:00pm 20.0 E 9 15 1019.9 - 0.0 - Partly cloudy 10 - - - -
22/12:30pm 19.3 E 6 10 1020.1 - 0.0 - Cloudy 10 - - - -
22/12:00pm 19.2 ENE 7 11 1020.3 - 0.0 - Cloudy 10 - - - -
22/11:30am 19.8 E 5 9 1020.0 - 0.0 - Partly cloudy 10 - - - -

Other Formats:

Comma delimited format used in spreadsheet applications
http://www.bom.gov.au/fwo/IDV60701/IDV60701.95957.axf

JavaScript Object Notation format (JSON) in row-major order
http://www.bom.gov.au/fwo/IDV60701/IDV60701.95957.json